createdAt,value
2022-12-08T05:29:19.135Z,44.97
2022-12-08T05:35:11.579Z,53.83
2022-12-08T05:52:50.614Z,37.00
2022-12-08T05:58:43.763Z,28.63
2022-12-08T06:04:36.946Z,30.52
2022-12-08T06:10:29.444Z,25.85
2022-12-08T06:16:21.938Z,24.05
2022-12-08T06:22:14.764Z,28.42
2022-12-08T06:28:07.605Z,24.85
2022-12-08T06:34:00.765Z,30.10
2022-12-08T06:39:53.845Z,30.38
2022-12-08T06:45:47.618Z,33.00
2022-12-08T06:51:40.734Z,29.83
2022-12-08T06:57:35.165Z,30.42
2022-12-08T07:03:28.965Z,26.58
2022-12-08T07:09:21.870Z,34.53
2022-12-08T07:15:15.395Z,31.58
2022-12-08T07:21:10.928Z,31.67
2022-12-08T07:27:03.553Z,32.15
2022-12-08T07:32:55.734Z,23.67
2022-12-08T07:38:48.647Z,28.20
2022-12-08T07:44:40.649Z,29.50
2022-12-08T07:50:33.325Z,26.48
2022-12-08T07:56:26.045Z,24.35
2022-12-08T08:02:25.266Z,21.83
2022-12-08T08:08:19.048Z,24.98
2022-12-08T08:14:12.015Z,22.05
2022-12-08T08:20:08.857Z,20.97
2022-12-08T08:26:05.114Z,19.63
2022-12-08T08:31:57.446Z,21.25
2022-12-08T08:37:51.058Z,22.33
2022-12-08T08:43:44.905Z,21.42
2022-12-08T08:49:37.117Z,19.25
2022-12-08T08:55:29.677Z,17.17
2022-12-08T09:01:28.334Z,16.70
2022-12-08T09:07:22.126Z,18.92
2022-12-08T09:13:15.065Z,17.77
2022-12-08T09:19:08.226Z,12.55
2022-12-08T09:25:01.214Z,11.60
2022-12-08T09:30:54.703Z,11.95
2022-12-08T09:36:47.055Z,16.40
2022-12-08T09:43:12.396Z,14.85
2022-12-08T09:49:05.896Z,14.27
2022-12-08T09:55:03.427Z,15.77
2022-12-08T10:00:56.428Z,14.45
2022-12-08T10:06:49.404Z,14.52
2022-12-08T10:13:05.265Z,15.10
2022-12-08T10:19:11.575Z,13.95
2022-12-08T10:25:10.477Z,16.70
2022-12-08T10:31:03.114Z,14.93
2022-12-08T10:36:58.119Z,14.98
2022-12-08T10:42:53.995Z,27.00
2022-12-08T10:48:53.693Z,17.25
2022-12-08T10:54:46.204Z,21.60
2022-12-08T11:00:40.433Z,23.85
2022-12-08T11:06:36.768Z,18.52
2022-12-08T11:12:30.772Z,14.85
2022-12-08T11:18:39.466Z,16.17
2022-12-08T11:24:37.659Z,17.90
2022-12-08T11:30:37.096Z,11.68
2022-12-08T11:36:33.359Z,20.13
2022-12-08T11:42:35.875Z,13.63
2022-12-08T11:49:06.300Z,14.25
2022-12-08T11:55:18.389Z,14.73
2022-12-08T12:01:28.735Z,16.40
2022-12-08T12:07:41.396Z,14.77
2022-12-08T12:13:56.573Z,18.52
2022-12-08T12:19:50.418Z,14.48
2022-12-08T12:25:57.063Z,16.35
2022-12-08T12:31:53.882Z,21.42
2022-12-08T12:37:46.331Z,18.45
2022-12-08T12:43:39.494Z,20.63
2022-12-08T12:49:40.726Z,16.65
2022-12-08T12:55:56.728Z,26.63
2022-12-08T13:01:54.824Z,15.57
2022-12-08T13:07:56.863Z,18.80
2022-12-08T13:14:04.267Z,23.20
2022-12-08T13:20:00.114Z,16.45
2022-12-08T13:26:17.206Z,22.75
2022-12-08T13:32:12.602Z,21.25
2022-12-08T13:38:06.114Z,19.58
2022-12-08T13:57:14.274Z,21.27
2022-12-08T14:03:13.488Z,25.08
2022-12-08T14:09:13.561Z,19.50
2022-12-08T14:15:08.368Z,27.80
2022-12-08T14:21:22.830Z,28.98
2022-12-08T14:27:18.642Z,28.88
2022-12-08T14:33:17.136Z,32.55
2022-12-08T14:39:10.007Z,31.10
2022-12-08T14:45:11.202Z,32.10
2022-12-08T14:51:04.640Z,34.25
2022-12-08T14:56:58.374Z,38.60
2022-12-08T15:02:51.125Z,40.97
2022-12-08T15:08:54.655Z,38.92
2022-12-08T15:15:00.260Z,47.05
2022-12-08T15:21:01.275Z,66.97
2022-12-08T15:26:55.584Z,60.30
2022-12-08T15:32:54.392Z,56.15
2022-12-08T15:38:52.296Z,48.47
2022-12-08T15:44:46.094Z,40.83
2022-12-08T15:50:39.103Z,41.65
2022-12-08T15:56:34.266Z,47.25
2022-12-08T16:02:34.288Z,46.25
2022-12-08T16:08:51.800Z,50.95
2022-12-08T16:21:31.601Z,51.80
2022-12-08T16:33:38.467Z,46.90
2022-12-08T16:39:38.783Z,44.13
2022-12-08T16:45:44.457Z,52.75
2022-12-08T16:51:38.658Z,51.35
2022-12-08T16:57:32.136Z,57.75
2022-12-08T17:03:25.525Z,59.92
2022-12-08T17:09:18.956Z,52.55
2022-12-08T17:15:17.118Z,55.35
2022-12-08T17:21:17.375Z,43.72
2022-12-08T17:27:12.135Z,46.03
2022-12-08T17:33:05.168Z,50.08
2022-12-08T17:39:00.902Z,46.95
2022-12-08T17:44:57.864Z,49.83
2022-12-08T17:50:56.364Z,56.92
2022-12-08T17:56:49.054Z,51.97
2022-12-08T18:02:41.338Z,62.08
2022-12-08T18:08:37.103Z,56.42
2022-12-08T18:14:30.524Z,56.28
2022-12-08T18:20:23.564Z,65.77
2022-12-08T18:26:17.272Z,58.50
2022-12-08T18:32:09.827Z,57.03
2022-12-08T18:38:03.115Z,58.75
2022-12-08T18:43:57.335Z,54.37
2022-12-08T18:49:50.974Z,49.03
2022-12-08T18:55:43.455Z,51.07
2022-12-08T19:01:38.178Z,46.40
2022-12-08T19:07:32.114Z,46.78
2022-12-08T19:13:24.714Z,46.53
2022-12-08T19:19:18.057Z,45.05
2022-12-08T19:25:10.426Z,45.63
2022-12-08T19:31:07.206Z,44.73
2022-12-08T19:36:59.738Z,44.72
2022-12-08T19:43:11.325Z,35.88
2022-12-08T19:49:03.528Z,42.70
2022-12-08T19:54:57.891Z,39.17
2022-12-08T20:00:50.586Z,38.75
2022-12-08T20:06:43.224Z,39.13
2022-12-08T20:12:35.842Z,42.50
2022-12-08T20:18:29.916Z,46.17
2022-12-08T20:24:22.754Z,45.65
2022-12-08T20:30:18.073Z,41.80
2022-12-08T20:36:19.414Z,52.90
2022-12-08T20:42:14.063Z,44.90
2022-12-08T20:48:07.065Z,45.88
2022-12-08T20:54:00.931Z,43.83
2022-12-08T20:59:53.938Z,43.13
2022-12-08T21:05:53.013Z,40.00
2022-12-08T21:11:46.033Z,40.63
2022-12-08T21:17:39.136Z,44.72
2022-12-08T21:23:32.332Z,43.47
2022-12-08T21:29:25.934Z,46.83
2022-12-08T21:35:18.668Z,44.03
2022-12-08T21:41:38.027Z,47.20
2022-12-08T21:47:30.930Z,46.50
2022-12-08T21:53:26.614Z,42.10
2022-12-08T21:59:21.255Z,40.65
2022-12-08T22:05:14.707Z,44.78
2022-12-08T22:11:08.413Z,46.07
2022-12-08T22:17:00.639Z,48.03
2022-12-08T22:22:53.170Z,43.80
2022-12-08T22:28:46.088Z,39.72
2022-12-08T22:34:39.154Z,46.35
2022-12-08T22:40:32.235Z,47.97
2022-12-08T22:46:27.594Z,48.40
2022-12-08T22:52:20.274Z,44.95
2022-12-08T22:58:14.494Z,45.42
2022-12-08T23:04:09.189Z,50.97
2022-12-08T23:10:07.447Z,44.92
2022-12-08T23:16:00.235Z,47.38
2022-12-08T23:21:53.135Z,43.50
2022-12-08T23:27:46.231Z,43.70
2022-12-08T23:33:39.546Z,43.22
2022-12-08T23:39:32.492Z,45.85
2022-12-08T23:45:25.174Z,47.00
2022-12-08T23:51:18.043Z,44.17
2022-12-08T23:57:10.260Z,45.33
